Time;durP1;ratioP1;P1;durP2;ratioP2;P2;SDS_P1;SDS_P2;PMS_P1;PMS_P2;Temp;Humidity;BMP_temperature;BMP_pressure;BME280_temperature;BME280_humidity;BME280_pressure;Samples;Min_cycle;Max_cycle;Signal;HPM_P1;HPM_P2
2023/04/11 00:01:23;;;;;;;;;;;;;;;;;;6194631;23;19924;-90
2023/04/11 00:03:51;;;;;;;;;;;;;;;;;;6190277;23;19935;-89
2023/04/11 00:06:20;;;;;;;;;;;;;;;;;;6193958;23;19927;-89
2023/04/11 00:08:50;;;;;;;;;;;;;;;;;;6183655;23;19927;-89
2023/04/11 00:11:17;;;;;;;;;;;;;;;;;;6194376;23;19927;-89
2023/04/11 00:13:44;;;;;;;;;;;;;;;;;;6190403;23;19927;-90
2023/04/11 00:16:11;;;;;;;;;;;;;;;;;;6133549;23;19924;-89
2023/04/11 00:18:43;;;;;;;;;;;;;;;;;;6193543;23;19924;-89
2023/04/11 00:21:15;;;;;;;;;;;;;;;;;;6193438;23;19943;-89
2023/04/11 00:23:42;;;;;;;;;;;;;;;;;;6133264;23;19924;-89
2023/04/11 00:26:09;;;;;;;;;;;;;;;;;;6158379;23;19921;-90
2023/04/11 00:28:38;;;;;;;;;;;;;;;;;;6194013;23;20341;-90
2023/04/11 00:31:05;;;;;;;;;;;;;;;;;;6157752;23;19925;-90
2023/04/11 00:33:35;;;;;;;;;;;;;;;;;;6157525;23;19927;-90
2023/04/11 00:36:03;;;;;;;;;;;;;;;;;;6157850;23;19924;-90
2023/04/11 00:38:33;;;;;;;;;;;;;;;;;;6157516;23;19924;-90
2023/04/11 00:41:00;;;;;;;;;;;;;;;;;;6167678;23;19920;-91
2023/04/11 00:43:27;;;;;;;;;;;;;;;;;;6158106;23;19947;-90
2023/04/11 00:45:54;;;;;;;;;;;;;;;;;;6132990;23;19920;-89
2023/04/11 00:48:27;;;;;;;;;;;;;;;;;;6183978;23;19924;-88
2023/04/11 00:50:54;;;;;;;;;;;;;;;;;;6157437;23;19924;-88
2023/04/11 00:53:22;;;;;;;;;;;;;;;;;;6157203;23;19921;-88
2023/04/11 00:55:52;;;;;;;;;;;;;;;;;;6133822;23;20268;-90
2023/04/11 00:58:19;;;;;;;;;;;;;;;;;;6157711;23;19920;-89
2023/04/11 01:00:48;;;;;;;;;;;;;;;;;;6157653;23;19920;-89
2023/04/11 01:03:17;;;;;;;;;;;;;;;;;;6165755;23;19943;-89
2023/04/11 01:05:52;;;;;;;;;;;;;;;;;;6133886;23;19921;-89
2023/04/11 01:08:19;;;;;;;;;;;;;;;;;;6158132;23;20229;-89
2023/04/11 01:10:53;;;;;;;;;;;;;;;;;;6157110;23;19925;-90
2023/04/11 01:13:20;;;;;;;;;;;;;;;;;;6164897;23;19920;-90
2023/04/11 01:15:47;;;;;;;;;;;;;;;;;;6167786;23;19920;-90
2023/04/11 01:18:14;;;;;;;;;;;;;;;;;;6158256;23;19920;-89
2023/04/11 01:20:41;;;;;;;;;;;;;;;;;;6157551;23;19921;-89
2023/04/11 01:23:09;;;;;;;;;;;;;;;;;;6157151;23;20359;-87
2023/04/11 01:25:37;;;;;;;;;;;;;;;;;;6185200;23;20225;-83
2023/04/11 01:28:08;;;;;;;;;;;;;;;;;;6162858;23;19919;-83
2023/04/11 01:30:35;;;;;;;;;;;;;;;;;;6161912;23;20363;-83
2023/04/11 01:33:02;;;;;;;;;;;;;;;;;;6186990;23;19920;-83
2023/04/11 01:35:29;;;;;;;;;;;;;;;;;;6187643;23;19920;-83
2023/04/11 01:37:59;;;;;;;;;;;;;;;;;;6187984;23;19919;-82
2023/04/11 01:40:31;;;;;;;;;;;;;;;;;;6162132;23;19919;-83
2023/04/11 01:43:02;;;;;;;;;;;;;;;;;;6196961;23;20015;-83
2023/04/11 01:45:28;;;;;;;;;;;;;;;;;;6185972;23;19920;-83
2023/04/11 01:48:04;;;;;;;;;;;;;;;;;;6187968;23;20263;-83
2023/04/11 01:50:30;;;;;;;;;;;;;;;;;;6187225;23;19927;-83
2023/04/11 01:52:57;;;;;;;;;;;;;;;;;;6187404;23;20340;-83
2023/04/11 01:55:25;;;;;;;;;;;;;;;;;;6185747;23;19924;-83
2023/04/11 01:57:52;;;;;;;;;;;;;;;;;;6196747;23;19920;-83
2023/04/11 02:00:21;;;;;;;;;;;;;;;;;;6162688;23;20255;-83
2023/04/11 02:02:51;;;;;;;;;;;;;;;;;;6197381;23;19920;-83
2023/04/11 02:05:21;;;;;;;;;;;;;;;;;;6188379;23;19924;-83
2023/04/11 02:07:50;;;;;;;;;;;;;;;;;;6188847;23;19942;-83
2023/04/11 02:10:18;;;;;;;;;;;;;;;;;;6189335;23;19920;-83
2023/04/11 02:12:45;;;;;;;;;;;;;;;;;;6215184;23;19924;-83
2023/04/11 02:15:16;;;;;;;;;;;;;;;;;;6164440;23;19920;-83
2023/04/11 02:17:44;;;;;;;;;;;;;;;;;;6163206;23;20287;-83
2023/04/11 02:20:14;;;;;;;;;;;;;;;;;;6199961;23;19927;-83
2023/04/11 02:22:41;;;;;;;;;;;;;;;;;;6215049;23;20344;-83
2023/04/11 02:25:08;;;;;;;;;;;;;;;;;;6189210;23;19920;-83
2023/04/11 02:27:35;;;;;;;;;;;;;;;;;;6188623;23;19924;-83
2023/04/11 02:30:04;;;;;;;;;;;;;;;;;;6215245;23;19927;-83
2023/04/11 02:32:32;;;;;;;;;;;;;;;;;;6163816;23;19927;-83
2023/04/11 02:35:00;;;;;;;;;;;;;;;;;;6188890;23;19924;-83
2023/04/11 02:37:30;;;;;;;;;;;;;;;;;;6163306;23;20218;-83
2023/04/11 02:39:57;;;;;;;;;;;;;;;;;;6189088;23;19920;-83
2023/04/11 02:42:26;;;;;;;;;;;;;;;;;;6163437;23;19920;-84
2023/04/11 02:44:54;;;;;;;;;;;;;;;;;;6192322;23;19927;-83
2023/04/11 02:47:26;;;;;;;;;;;;;;;;;;6163015;23;19920;-83
2023/04/11 02:49:58;;;;;;;;;;;;;;;;;;6164188;23;19974;-84
2023/04/11 02:52:32;;;;;;;;;;;;;;;;;;6198271;23;20407;-83
2023/04/11 02:54:59;;;;;;;;;;;;;;;;;;6163333;23;20256;-84
2023/04/11 02:57:26;;;;;;;;;;;;;;;;;;6163166;23;19919;-83
2023/04/11 02:59:55;;;;;;;;;;;;;;;;;;6188249;23;19923;-83
2023/04/11 03:02:28;;;;;;;;;;;;;;;;;;6198249;23;19923;-83
2023/04/11 03:05:02;;;;;;;;;;;;;;;;;;6191522;23;19931;-83
2023/04/11 03:07:33;;;;;;;;;;;;;;;;;;6198172;23;19943;-84
2023/04/11 03:10:03;;;;;;;;;;;;;;;;;;6199312;23;19927;-84
2023/04/11 03:12:33;;;;;;;;;;;;;;;;;;6187704;23;19923;-83
2023/04/11 03:15:04;;;;;;;;;;;;;;;;;;6187738;23;19927;-84
2023/04/11 03:17:33;;;;;;;;;;;;;;;;;;6188210;23;20367;-83
2023/04/11 03:20:05;;;;;;;;;;;;;;;;;;6163457;23;19927;-84
2023/04/11 03:22:34;;;;;;;;;;;;;;;;;;6198884;23;19920;-84
2023/04/11 03:25:05;;;;;;;;;;;;;;;;;;6162707;23;20339;-84
2023/04/11 03:27:32;;;;;;;;;;;;;;;;;;6163565;23;19927;-84
2023/04/11 03:30:03;;;;;;;;;;;;;;;;;;6163560;23;19920;-84
2023/04/11 03:32:44;;;;;;;;;;;;;;;;;;6163718;23;19976;-84
2023/04/11 03:35:14;;;;;;;;;;;;;;;;;;6188327;23;19927;-84
2023/04/11 03:37:47;;;;;;;;;;;;;;;;;;6162676;23;19946;-84
2023/04/11 03:40:17;;;;;;;;;;;;;;;;;;6198916;23;19924;-83
2023/04/11 03:42:51;;;;;;;;;;;;;;;;;;6163645;23;20283;-84
2023/04/11 03:45:22;;;;;;;;;;;;;;;;;;6189838;23;19928;-84
2023/04/11 03:47:53;;;;;;;;;;;;;;;;;;6163621;23;20259;-84
2023/04/11 03:50:26;;;;;;;;;;;;;;;;;;6198856;23;19924;-84
2023/04/11 03:53:02;;;;;;;;;;;;;;;;;;6199236;23;19920;-83
2023/04/11 03:55:30;;;;;;;;;;;;;;;;;;6188753;23;19920;-83
2023/04/11 03:57:57;;;;;;;;;;;;;;;;;;6188462;23;19924;-84
2023/04/11 04:00:25;;;;;;;;;;;;;;;;;;6188506;23;19920;-84
2023/04/11 04:03:01;;;;;;;;;;;;;;;;;;6163192;23;20340;-83
2023/04/11 04:05:28;;;;;;;;;;;;;;;;;;6163793;23;19920;-84
2023/04/11 04:07:55;;;;;;;;;;;;;;;;;;6188473;23;19935;-82
2023/04/11 04:10:29;;;;;;;;;;;;;;;;;;6162508;23;19927;-84
2023/04/11 04:12:59;;;;;;;;;;;;;;;;;;6198077;23;19927;-83
2023/04/11 04:15:36;;;;;;;;;;;;;;;;;;6163856;23;19924;-83
2023/04/11 04:18:03;;;;;;;;;;;;;;;;;;6197079;23;19920;-84
2023/04/11 04:20:47;;;;;;;;;;;;;;;;;;6186299;23;20230;-83
2023/04/11 04:23:16;;;;;;;;;;;;;;;;;;6161464;23;19924;-84
2023/04/11 04:26:12;;;;;;;;;;;;;;;;;;6208966;23;19920;-83
2023/04/11 04:28:44;;;;;;;;;;;;;;;;;;6187930;23;19927;-84
2023/04/11 04:31:21;;;;;;;;;;;;;;;;;;6197943;23;19930;-84
2023/04/11 04:33:49;;;;;;;;;;;;;;;;;;6195142;23;20367;-85
2023/04/11 04:36:23;;;;;;;;;;;;;;;;;;6160879;23;19920;-84
2023/04/11 04:38:51;;;;;;;;;;;;;;;;;;6186241;23;19920;-84
2023/04/11 04:41:22;;;;;;;;;;;;;;;;;;6186640;23;19920;-84
2023/04/11 04:43:56;;;;;;;;;;;;;;;;;;6194123;23;19924;-84
2023/04/11 04:46:35;;;;;;;;;;;;;;;;;;6198301;23;19927;-84
2023/04/11 04:49:06;;;;;;;;;;;;;;;;;;6198076;23;20410;-85
2023/04/11 04:51:37;;;;;;;;;;;;;;;;;;6198097;23;19924;-85
2023/04/11 04:54:05;;;;;;;;;;;;;;;;;;6162544;23;20275;-85
2023/04/11 04:56:33;;;;;;;;;;;;;;;;;;6188485;23;19927;-85
2023/04/11 04:59:03;;;;;;;;;;;;;;;;;;6162988;23;19926;-85
2023/04/11 05:01:31;;;;;;;;;;;;;;;;;;6162268;23;19920;-85
2023/04/11 05:03:59;;;;;;;;;;;;;;;;;;6162472;23;19920;-85
2023/04/11 05:06:39;;;;;;;;;;;;;;;;;;6197910;23;19927;-85
2023/04/11 05:09:06;;;;;;;;;;;;;;;;;;6188320;23;19920;-86
2023/04/11 05:11:34;;;;;;;;;;;;;;;;;;6188366;23;19920;-85
2023/04/11 05:14:04;;;;;;;;;;;;;;;;;;6187681;23;19968;-88
2023/04/11 05:16:32;;;;;;;;;;;;;;;;;;6162397;23;20370;-86
2023/04/11 05:18:59;;;;;;;;;;;;;;;;;;6161266;23;19920;-86
2023/04/11 05:21:26;;;;;;;;;;;;;;;;;;6187905;23;19931;-85
2023/04/11 05:23:53;;;;;;;;;;;;;;;;;;6162618;23;19920;-86
2023/04/11 05:26:20;;;;;;;;;;;;;;;;;;6163345;23;19920;-85
2023/04/11 05:28:49;;;;;;;;;;;;;;;;;;6187946;23;19920;-86
2023/04/11 05:31:20;;;;;;;;;;;;;;;;;;6162126;23;19921;-85
2023/04/11 05:33:47;;;;;;;;;;;;;;;;;;6160861;23;19924;-85
2023/04/11 05:36:14;;;;;;;;;;;;;;;;;;6161553;23;19920;-85
2023/04/11 05:38:41;;;;;;;;;;;;;;;;;;6162720;23;19920;-86
2023/04/11 05:41:11;;;;;;;;;;;;;;;;;;6189165;23;19920;-86
2023/04/11 05:43:38;;;;;;;;;;;;;;;;;;6189390;23;19919;-85
2023/04/11 05:46:09;;;;;;;;;;;;;;;;;;6188423;23;19931;-86
2023/04/11 05:48:37;;;;;;;;;;;;;;;;;;6213394;23;19920;-86
2023/04/11 05:51:07;;;;;;;;;;;;;;;;;;6189828;23;19943;-86
2023/04/11 05:53:34;;;;;;;;;;;;;;;;;;6224799;23;19927;-86
2023/04/11 05:56:04;;;;;;;;;;;;;;;;;;6190668;23;19927;-86
2023/04/11 05:58:33;;;;;;;;;;;;;;;;;;6164505;23;19920;-86
2023/04/11 06:00:59;;;;;;;;;;;;;;;;;;6216367;23;19927;-86
2023/04/11 06:03:28;;;;;;;;;;;;;;;;;;6164790;23;19931;-85
2023/04/11 06:05:55;;;;;;;;;;;;;;;;;;6216598;23;20248;-86
2023/04/11 06:08:24;;;;;;;;;;;;;;;;;;6216105;23;19920;-86
2023/04/11 06:10:54;;;;;;;;;;;;;;;;;;6165077;23;20244;-86
2023/04/11 06:13:21;;;;;;;;;;;;;;;;;;6189261;23;19934;-86
2023/04/11 06:15:48;;;;;;;;;;;;;;;;;;6216315;23;19932;-85
2023/04/11 06:18:20;;;;;;;;;;;;;;;;;;6215646;23;19924;-86
2023/04/11 06:20:48;;;;;;;;;;;;;;;;;;6216380;23;19920;-85
2023/04/11 06:23:15;;;;;;;;;;;;;;;;;;6226331;23;19920;-86
2023/04/11 06:25:45;;;;;;;;;;;;;;;;;;6215913;23;19920;-86
2023/04/11 06:28:14;;;;;;;;;;;;;;;;;;6215675;23;19920;-85
2023/04/11 06:30:44;;;;;;;;;;;;;;;;;;6216009;23;19920;-85
2023/04/11 06:33:13;;;;;;;;;;;;;;;;;;6215694;23;19927;-85
2023/04/11 06:35:40;;;;;;;;;;;;;;;;;;6215850;23;20225;-85
2023/04/11 06:38:12;;;;;;;;;;;;;;;;;;6188784;23;19931;-85
2023/04/11 06:40:39;;;;;;;;;;;;;;;;;;6216139;23;19927;-85
2023/04/11 06:43:06;;;;;;;;;;;;;;;;;;6189652;23;19920;-85
2023/04/11 06:45:35;;;;;;;;;;;;;;;;;;6189569;23;19927;-85
2023/04/11 06:48:06;;;;;;;;;;;;;;;;;;6215468;23;19920;-85
2023/04/11 06:50:37;;;;;;;;;;;;;;;;;;6215111;23;20034;-84
2023/04/11 06:53:04;;;;;;;;;;;;;;;;;;6216174;23;19920;-85
2023/04/11 06:55:35;;;;;;;;;;;;;;;;;;6189343;23;19931;-85
2023/04/11 06:58:04;;;;;;;;;;;;;;;;;;6225775;23;19919;-85
2023/04/11 07:00:34;;;;;;;;;;;;;;;;;;6189241;23;19920;-85
2023/04/11 07:03:06;;;;;;;;;;;;;;;;;;6226234;23;19920;-86
2023/04/11 07:05:36;;;;;;;;;;;;;;;;;;6216254;23;19920;-85
2023/04/11 07:08:03;;;;;;;;;;;;;;;;;;6164856;23;19927;-85
2023/04/11 07:10:32;;;;;;;;;;;;;;;;;;6216197;23;19927;-85
2023/04/11 07:13:00;;;;;;;;;;;;;;;;;;6164805;23;19942;-85
2023/04/11 07:15:27;;;;;;;;;;;;;;;;;;6221396;23;19923;-85
2023/04/11 07:17:57;;;;;;;;;;;;;;;;;;6198348;23;19920;-85
2023/04/11 07:20:26;;;;;;;;;;;;;;;;;;6198120;23;19920;-85
2023/04/11 07:22:55;;;;;;;;;;;;;;;;;;6197757;23;19923;-85
2023/04/11 07:54:37;;;;;;;;;;;;;;;;;;6215303;23;19920;-88
2023/04/11 07:57:05;;;;;;;;;;;;;;;;;;6188859;23;19920;-89
2023/04/11 07:59:32;;;;;;;;;;;;;;;;;;6163623;23;19923;-89
2023/04/11 08:01:59;;;;;;;;;;;;;;;;;;6188796;23;19920;-90
2023/04/11 08:04:27;;;;;;;;;;;;;;;;;;6163547;23;19931;-89
2023/04/11 08:06:55;;;;;;;;;;;;;;;;;;6214892;23;19943;-90
2023/04/11 08:09:22;;;;;;;;;;;;;;;;;;6188512;23;19927;-88
2023/04/11 08:11:51;;;;;;;;;;;;;;;;;;6215195;23;19924;-88
2023/04/11 08:14:18;;;;;;;;;;;;;;;;;;6188606;23;20336;-89
2023/04/11 08:16:45;;;;;;;;;;;;;;;;;;6189065;23;19921;-89
2023/04/11 08:19:12;;;;;;;;;;;;;;;;;;6189336;23;19920;-89
2023/04/11 08:21:40;;;;;;;;;;;;;;;;;;6216436;23;20255;-89
2023/04/11 08:24:07;;;;;;;;;;;;;;;;;;6216021;23;19924;-89
2023/04/11 08:26:34;;;;;;;;;;;;;;;;;;6164190;23;19931;-89
2023/04/11 08:29:03;;;;;;;;;;;;;;;;;;6189214;23;20240;-89
2023/04/11 08:31:31;;;;;;;;;;;;;;;;;;6189058;23;19931;-89
2023/04/11 08:33:58;;;;;;;;;;;;;;;;;;6188993;23;19930;-88
2023/04/11 08:36:26;;;;;;;;;;;;;;;;;;6200726;23;19942;-89
2023/04/11 08:38:54;;;;;;;;;;;;;;;;;;6163807;23;20287;-89
2023/04/11 08:41:21;;;;;;;;;;;;;;;;;;6199593;23;19926;-87
2023/04/11 09:43:26;;;;;;;;;;;;;;;;;;6217160;23;20344;-89
2023/04/11 09:46:09;;;;;;;;;;;;;;;;;;6190199;23;19943;-89
2023/04/11 09:48:37;;;;;;;;;;;;;;;;;;6200215;23;19927;-88
2023/04/11 09:51:05;;;;;;;;;;;;;;;;;;6190349;23;19943;-89
2023/04/11 09:53:33;;;;;;;;;;;;;;;;;;6190362;23;19920;-88
2023/04/11 10:21:08;;;;;;;;;;;;;;;;;;6217182;23;20293;-88
2023/04/11 10:23:51;;;;;;;;;;;;;;;;;;6217061;23;19920;-88
2023/04/11 10:26:18;;;;;;;;;;;;;;;;;;6158867;23;20124;-88
2023/04/11 10:28:45;;;;;;;;;;;;;;;;;;6160032;23;19921;-89
2023/04/11 10:31:12;;;;;;;;;;;;;;;;;;6159690;23;19927;-88
2023/04/11 10:33:40;;;;;;;;;;;;;;;;;;6196572;23;20252;-88
2023/04/11 10:36:09;;;;;;;;;;;;;;;;;;6186845;23;19920;-88
2023/04/11 10:38:50;;;;;;;;;;;;;;;;;;6160144;23;19920;-88
2023/04/11 10:41:17;;;;;;;;;;;;;;;;;;6135568;23;19921;-89
2023/04/11 10:43:45;;;;;;;;;;;;;;;;;;6135421;23;19920;-88
2023/04/11 10:46:19;;;;;;;;;;;;;;;;;;6169946;23;19924;-88
2023/04/11 10:48:59;;;;;;;;;;;;;;;;;;6196431;23;19920;-89
2023/04/11 10:51:28;;;;;;;;;;;;;;;;;;6159922;23;19924;-89
2023/04/11 10:53:58;;;;;;;;;;;;;;;;;;6186378;23;19943;-89
2023/04/11 10:56:44;;;;;;;;;;;;;;;;;;6184523;23;19928;-89
2023/04/11 10:59:28;;;;;;;;;;;;;;;;;;6160035;23;19927;-89
2023/04/11 11:01:55;;;;;;;;;;;;;;;;;;6185655;23;19920;-89
2023/04/11 11:04:30;;;;;;;;;;;;;;;;;;6160343;23;20347;-88
2023/04/11 11:06:58;;;;;;;;;;;;;;;;;;6196091;23;19920;-88
2023/04/11 11:09:27;;;;;;;;;;;;;;;;;;6194494;23;20370;-88
2023/04/11 11:12:07;;;;;;;;;;;;;;;;;;6198269;23;19943;-88
2023/04/11 11:14:34;;;;;;;;;;;;;;;;;;6195289;23;19927;-88
2023/04/11 11:17:01;;;;;;;;;;;;;;;;;;6160494;23;19927;-89
2023/04/11 11:19:29;;;;;;;;;;;;;;;;;;6189294;23;19921;-89
2023/04/11 11:21:58;;;;;;;;;;;;;;;;;;6160157;23;19928;-88
2023/04/11 11:24:27;;;;;;;;;;;;;;;;;;6185951;23;19920;-89
2023/04/11 11:26:54;;;;;;;;;;;;;;;;;;6185652;23;19920;-88
2023/04/11 12:02:17;;;;;;;;;;;;;;;;;;6215747;23;19920;-89
2023/04/11 12:04:45;;;;;;;;;;;;;;;;;;6189522;23;19920;-88
2023/04/11 12:07:12;;;;;;;;;;;;;;;;;;6163963;23;19920;-88
2023/04/11 12:09:40;;;;;;;;;;;;;;;;;;6189278;23;19920;-88
2023/04/11 12:12:08;;;;;;;;;;;;;;;;;;6215875;23;19920;-89
2023/04/11 12:14:35;;;;;;;;;;;;;;;;;;6189179;23;19919;-89
2023/04/11 12:17:02;;;;;;;;;;;;;;;;;;6188916;23;19927;-89
2023/04/11 12:19:31;;;;;;;;;;;;;;;;;;6215503;23;20350;-88
2023/04/11 12:21:58;;;;;;;;;;;;;;;;;;6215657;23;19928;-89
2023/04/11 12:24:25;;;;;;;;;;;;;;;;;;6189423;23;19927;-88
2023/04/11 12:26:52;;;;;;;;;;;;;;;;;;6164225;23;19919;-89
2023/04/11 12:29:20;;;;;;;;;;;;;;;;;;6215393;23;19927;-88
2023/04/11 12:31:47;;;;;;;;;;;;;;;;;;6189048;23;19920;-88
2023/04/11 12:34:14;;;;;;;;;;;;;;;;;;6215445;23;19927;-89
2023/04/11 12:36:42;;;;;;;;;;;;;;;;;;6215970;23;19919;-88
2023/04/11 12:39:10;;;;;;;;;;;;;;;;;;6189772;23;19924;-89
2023/04/11 12:41:40;;;;;;;;;;;;;;;;;;6190788;23;19920;-88
2023/04/11 12:44:07;;;;;;;;;;;;;;;;;;6190826;23;19920;-89
2023/04/11 12:46:34;;;;;;;;;;;;;;;;;;6222292;22;19908;-88
2023/04/11 13:13:01;;;;;;;;;;;;;;;;;;6214997;23;19927;-90
2023/04/11 13:15:28;;;;;;;;;;;;;;;;;;6188127;23;19920;-90
2023/04/11 13:17:55;;;;;;;;;;;;;;;;;;6187780;23;19924;-89
2023/04/11 13:20:22;;;;;;;;;;;;;;;;;;6188231;23;20355;-89
2023/04/11 13:22:49;;;;;;;;;;;;;;;;;;6188024;23;19920;-89
2023/04/11 13:25:17;;;;;;;;;;;;;;;;;;6190451;23;19927;-91
2023/04/11 13:27:44;;;;;;;;;;;;;;;;;;6214893;23;19920;-90
2023/04/11 13:30:13;;;;;;;;;;;;;;;;;;6188455;23;19927;-90
2023/04/11 13:32:42;;;;;;;;;;;;;;;;;;6165049;23;19920;-90
2023/04/11 13:35:10;;;;;;;;;;;;;;;;;;6190251;23;19931;-90
2023/04/11 13:37:38;;;;;;;;;;;;;;;;;;6163518;23;19920;-90
2023/04/11 13:40:07;;;;;;;;;;;;;;;;;;6216483;23;19920;-91
2023/04/11 13:42:34;;;;;;;;;;;;;;;;;;6165339;23;19920;-91
2023/04/11 13:45:01;;;;;;;;;;;;;;;;;;6192088;23;19946;-91
2023/04/11 13:47:33;;;;;;;;;;;;;;;;;;6215782;23;19927;-91
2023/04/11 13:50:00;;;;;;;;;;;;;;;;;;6225960;23;19928;-92
2023/04/11 13:52:27;;;;;;;;;;;;;;;;;;6216257;23;19920;-92
2023/04/11 13:54:54;;;;;;;;;;;;;;;;;;6216285;23;20256;-92
2023/04/11 13:57:22;;;;;;;;;;;;;;;;;;6189116;23;19920;-91
2023/04/11 13:59:49;;;;;;;;;;;;;;;;;;6215655;23;19920;-91
2023/04/11 14:02:17;;;;;;;;;;;;;;;;;;6190702;23;19927;-92
2023/04/11 14:04:46;;;;;;;;;;;;;;;;;;6217112;23;19920;-91
2023/04/11 14:07:13;;;;;;;;;;;;;;;;;;6219773;23;19926;-91
2023/04/11 14:09:40;;;;;;;;;;;;;;;;;;6193456;23;19930;-90
2023/04/11 14:12:08;;;;;;;;;;;;;;;;;;6193181;23;19964;-92
2023/04/11 14:14:35;;;;;;;;;;;;;;;;;;6201736;23;19927;-90
2023/04/11 14:17:07;;;;;;;;;;;;;;;;;;6193547;23;19927;-90
2023/04/11 14:19:34;;;;;;;;;;;;;;;;;;6192731;23;19920;-91
2023/04/11 14:22:02;;;;;;;;;;;;;;;;;;6191778;23;19920;-90
2023/04/11 14:24:30;;;;;;;;;;;;;;;;;;6191342;23;19920;-90
2023/04/11 14:26:57;;;;;;;;;;;;;;;;;;6229016;23;19920;-91
2023/04/11 14:29:25;;;;;;;;;;;;;;;;;;6166642;23;20237;-90
2023/04/11 14:31:52;;;;;;;;;;;;;;;;;;6167273;23;19920;-91
2023/04/11 14:56:53;;;;;;;;;;;;;;;;;;6179895;23;20367;-91
2023/04/11 14:59:20;;;;;;;;;;;;;;;;;;6162798;23;19920;-92
2023/04/11 15:01:47;;;;;;;;;;;;;;;;;;6163262;23;19920;-90
2023/04/11 15:04:16;;;;;;;;;;;;;;;;;;6137581;23;19928;-92
2023/04/11 15:06:43;;;;;;;;;;;;;;;;;;6138335;23;19926;-92
2023/04/11 15:09:18;;;;;;;;;;;;;;;;;;6188842;23;19928;-92
2023/04/11 15:11:45;;;;;;;;;;;;;;;;;;6198772;23;19920;-91
2023/04/11 15:14:17;;;;;;;;;;;;;;;;;;6162748;23;19920;-91
2023/04/11 15:16:45;;;;;;;;;;;;;;;;;;6186217;23;19921;-92
2023/04/11 15:19:15;;;;;;;;;;;;;;;;;;6159566;23;19920;-91
2023/04/11 15:21:48;;;;;;;;;;;;;;;;;;6159697;23;19922;-91
2023/04/11 15:24:15;;;;;;;;;;;;;;;;;;6194854;23;19927;-91
2023/04/11 15:26:43;;;;;;;;;;;;;;;;;;6158866;23;19977;-90
2023/04/11 15:29:14;;;;;;;;;;;;;;;;;;6157813;23;19943;-90
2023/04/11 15:31:43;;;;;;;;;;;;;;;;;;6184758;23;19924;-90
2023/04/11 15:34:12;;;;;;;;;;;;;;;;;;6159019;23;19928;-90
2023/04/11 15:36:41;;;;;;;;;;;;;;;;;;6159220;23;19927;-90
2023/04/11 16:06:43;;;;;;;;;;;;;;;;;;6172841;23;19924;-88
2023/04/11 16:09:11;;;;;;;;;;;;;;;;;;6139567;23;20344;-89
2023/04/11 16:11:38;;;;;;;;;;;;;;;;;;6164450;23;19927;-89
2023/04/11 16:14:06;;;;;;;;;;;;;;;;;;6183864;23;19924;-89
2023/04/11 16:16:33;;;;;;;;;;;;;;;;;;6134236;23;19920;-90
2023/04/11 16:19:00;;;;;;;;;;;;;;;;;;6185842;23;19920;-91
2023/04/11 16:21:27;;;;;;;;;;;;;;;;;;6185384;23;20348;-91
2023/04/11 16:23:55;;;;;;;;;;;;;;;;;;6186894;23;19927;-91
2023/04/11 16:43:26;;;;;;;;;;;;;;;;;;6184934;23;19920;-90
2023/04/11 16:45:53;;;;;;;;;;;;;;;;;;6157868;23;19924;-89
2023/04/11 16:48:20;;;;;;;;;;;;;;;;;;6184815;23;19920;-89
2023/04/11 16:50:47;;;;;;;;;;;;;;;;;;6158272;23;19920;-89
2023/04/11 16:53:16;;;;;;;;;;;;;;;;;;6158671;23;19921;-90
2023/04/11 16:55:43;;;;;;;;;;;;;;;;;;6157287;23;19928;-90
2023/04/11 16:58:10;;;;;;;;;;;;;;;;;;6184828;23;19927;-90
2023/04/11 17:00:39;;;;;;;;;;;;;;;;;;6158817;23;19927;-89
2023/04/11 17:03:06;;;;;;;;;;;;;;;;;;6184878;23;19920;-90
2023/04/11 17:05:34;;;;;;;;;;;;;;;;;;6133184;23;20264;-90
2023/04/11 17:08:01;;;;;;;;;;;;;;;;;;6159047;23;19927;-89
2023/04/11 17:10:28;;;;;;;;;;;;;;;;;;6184722;23;19920;-89
2023/04/11 17:12:55;;;;;;;;;;;;;;;;;;6134584;23;19920;-89
2023/04/11 17:15:22;;;;;;;;;;;;;;;;;;6185046;23;19927;-90
2023/04/11 17:17:51;;;;;;;;;;;;;;;;;;6184358;23;19920;-90
2023/04/11 17:20:18;;;;;;;;;;;;;;;;;;6133943;23;19931;-90
2023/04/11 17:22:45;;;;;;;;;;;;;;;;;;6133786;23;19927;-90
2023/04/11 17:25:12;;;;;;;;;;;;;;;;;;6184485;23;19927;-90
2023/04/11 17:27:40;;;;;;;;;;;;;;;;;;6133341;23;19920;-90
2023/04/11 17:30:08;;;;;;;;;;;;;;;;;;6184623;23;19924;-90
2023/04/11 17:32:35;;;;;;;;;;;;;;;;;;6158663;23;19927;-89
2023/04/11 17:35:04;;;;;;;;;;;;;;;;;;6181297;23;20344;-89
2023/04/11 17:37:31;;;;;;;;;;;;;;;;;;6158493;23;19921;-89
2023/04/11 17:39:58;;;;;;;;;;;;;;;;;;6186455;23;19920;-90
2023/04/11 17:42:26;;;;;;;;;;;;;;;;;;6190516;23;19931;-90
2023/04/11 17:44:53;;;;;;;;;;;;;;;;;;6185544;23;20612;-89
2023/04/11 17:47:20;;;;;;;;;;;;;;;;;;6186185;23;19927;-89
2023/04/11 17:49:47;;;;;;;;;;;;;;;;;;6185719;23;19927;-89
2023/04/11 17:52:16;;;;;;;;;;;;;;;;;;6186080;23;19928;-89
2023/04/11 17:54:43;;;;;;;;;;;;;;;;;;6159575;23;19928;-89
2023/04/11 17:57:10;;;;;;;;;;;;;;;;;;6160226;23;19920;-89
2023/04/11 17:59:37;;;;;;;;;;;;;;;;;;6158447;23;19920;-89
2023/04/11 18:02:05;;;;;;;;;;;;;;;;;;6196141;23;19927;-89
2023/04/11 18:04:32;;;;;;;;;;;;;;;;;;6167220;23;20355;-89
2023/04/11 18:06:59;;;;;;;;;;;;;;;;;;6160326;23;19920;-89
2023/04/11 18:09:30;;;;;;;;;;;;;;;;;;6161773;23;19925;-88
2023/04/11 18:11:57;;;;;;;;;;;;;;;;;;6173191;23;19927;-89
2023/04/11 18:14:24;;;;;;;;;;;;;;;;;;6160667;23;20284;-89
2023/04/11 18:16:51;;;;;;;;;;;;;;;;;;6196506;23;19928;-88
2023/04/11 18:19:18;;;;;;;;;;;;;;;;;;6145454;23;20165;-88
2023/04/11 18:21:47;;;;;;;;;;;;;;;;;;6199181;23;19920;-89
2023/04/11 18:24:14;;;;;;;;;;;;;;;;;;6170647;23;19930;-89
2023/04/11 18:26:42;;;;;;;;;;;;;;;;;;6203366;23;19930;-89
2023/04/11 18:29:09;;;;;;;;;;;;;;;;;;6197879;23;19924;-88
2023/04/11 18:31:37;;;;;;;;;;;;;;;;;;6197219;23;19920;-88
2023/04/11 18:34:04;;;;;;;;;;;;;;;;;;6197782;23;19924;-88
2023/04/11 18:36:34;;;;;;;;;;;;;;;;;;6143949;23;19924;-88
2023/04/11 18:39:01;;;;;;;;;;;;;;;;;;6167848;23;19920;-89
2023/04/11 18:41:28;;;;;;;;;;;;;;;;;;6202510;23;19920;-90
2023/04/11 18:43:56;;;;;;;;;;;;;;;;;;6178472;23;19920;-89
2023/04/11 18:46:24;;;;;;;;;;;;;;;;;;6167602;23;19924;-89
2023/04/11 18:48:51;;;;;;;;;;;;;;;;;;6179559;23;19920;-90
2023/04/11 18:51:18;;;;;;;;;;;;;;;;;;6166944;23;20336;-89
2023/04/11 18:53:47;;;;;;;;;;;;;;;;;;6138464;23;19920;-87
2023/04/11 18:56:15;;;;;;;;;;;;;;;;;;6162228;23;20245;-90
2023/04/11 18:58:43;;;;;;;;;;;;;;;;;;6188993;23;19943;-90
2023/04/11 19:01:14;;;;;;;;;;;;;;;;;;6136284;23;20257;-90
2023/04/11 19:03:41;;;;;;;;;;;;;;;;;;6186852;23;19920;-89
2023/04/11 19:06:08;;;;;;;;;;;;;;;;;;6187287;23;19924;-90
2023/04/11 19:08:38;;;;;;;;;;;;;;;;;;6161453;23;19921;-89
2023/04/11 19:11:05;;;;;;;;;;;;;;;;;;6161472;23;19943;-89
2023/04/11 19:13:32;;;;;;;;;;;;;;;;;;6187033;23;19927;-89
2023/04/11 19:15:59;;;;;;;;;;;;;;;;;;6146545;23;19904;-89
2023/04/11 19:18:28;;;;;;;;;;;;;;;;;;6163768;23;19952;-88
2023/04/11 19:20:55;;;;;;;;;;;;;;;;;;6188803;23;19944;-89
2023/04/11 19:23:24;;;;;;;;;;;;;;;;;;6187183;23;19964;-90
2023/04/11 19:25:51;;;;;;;;;;;;;;;;;;6199946;23;19924;-88
2023/04/11 19:28:18;;;;;;;;;;;;;;;;;;6150489;23;19921;-88
2023/04/11 19:30:48;;;;;;;;;;;;;;;;;;6197418;23;19920;-88
2023/04/11 19:33:24;;;;;;;;;;;;;;;;;;6184509;23;19920;-88
2023/04/11 19:35:53;;;;;;;;;;;;;;;;;;6197842;23;19930;-87
2023/04/11 19:38:23;;;;;;;;;;;;;;;;;;6171544;23;20344;-88
2023/04/11 19:40:50;;;;;;;;;;;;;;;;;;6159038;23;19920;-88
2023/04/11 19:43:19;;;;;;;;;;;;;;;;;;6184583;23;19921;-88
2023/04/11 19:45:46;;;;;;;;;;;;;;;;;;6160871;23;19943;-89
2023/04/11 19:48:14;;;;;;;;;;;;;;;;;;6190127;23;19926;-88
2023/04/11 19:50:41;;;;;;;;;;;;;;;;;;6159613;23;19931;-88
2023/04/11 19:53:15;;;;;;;;;;;;;;;;;;6134130;23;19920;-88
2023/04/11 19:55:43;;;;;;;;;;;;;;;;;;6158293;23;19932;-88
2023/04/11 19:58:15;;;;;;;;;;;;;;;;;;6184336;23;19943;-87
2023/04/11 20:00:42;;;;;;;;;;;;;;;;;;6158410;23;19924;-87
2023/04/11 20:03:13;;;;;;;;;;;;;;;;;;6158856;23;19920;-88
2023/04/11 20:05:41;;;;;;;;;;;;;;;;;;6184357;23;19920;-87
2023/04/11 20:08:08;;;;;;;;;;;;;;;;;;6158370;23;19954;-88
2023/04/11 20:10:39;;;;;;;;;;;;;;;;;;6159592;23;20271;-87
2023/04/11 20:13:11;;;;;;;;;;;;;;;;;;6169458;23;20367;-88
2023/04/11 20:15:40;;;;;;;;;;;;;;;;;;6158440;23;20254;-88
2023/04/11 20:18:07;;;;;;;;;;;;;;;;;;6159014;23;19920;-87
2023/04/11 20:20:37;;;;;;;;;;;;;;;;;;6184912;23;19920;-87
2023/04/11 20:23:04;;;;;;;;;;;;;;;;;;6133926;23;19924;-87
2023/04/11 20:25:34;;;;;;;;;;;;;;;;;;6134443;23;19921;-86
2023/04/11 20:28:08;;;;;;;;;;;;;;;;;;6183543;23;19920;-88
2023/04/11 20:30:37;;;;;;;;;;;;;;;;;;6158158;23;20340;-87
2023/04/11 20:33:04;;;;;;;;;;;;;;;;;;6158154;23;19920;-88
2023/04/11 20:35:34;;;;;;;;;;;;;;;;;;6159239;23;19921;-88
2023/04/11 20:38:03;;;;;;;;;;;;;;;;;;6157428;23;19920;-87
2023/04/11 20:40:30;;;;;;;;;;;;;;;;;;6184169;23;19921;-88
2023/04/11 20:43:00;;;;;;;;;;;;;;;;;;6184120;23;19920;-88
2023/04/11 20:45:31;;;;;;;;;;;;;;;;;;6158925;23;20340;-88
2023/04/11 20:48:00;;;;;;;;;;;;;;;;;;6192701;23;19920;-88
2023/04/11 20:50:29;;;;;;;;;;;;;;;;;;6184016;23;19920;-87
2023/04/11 20:52:56;;;;;;;;;;;;;;;;;;6157525;23;19928;-88
2023/04/11 20:55:24;;;;;;;;;;;;;;;;;;6190241;23;19928;-88